KCTZ

Details ICAO KCTZ
Name SAMPSON CO
Region United States
Timezone America/New_York (UTC-5.0)
Plans Departing 0
Arriving 0
Stats Elevation 148 ft / 45 m (AMSL)
Location 34.974939° -78.365629°
Runways 1
Magnetic Variation 9.281° W
Sunrise 2017-12-11 12:12:51 UTC / 2017-12-11 07:12:51 Local
Sunset 2017-12-11 22:03:41 UTC / 2017-12-11 17:03:41 Local
Advertisement - Login to hide

Runways

ID Width Length Bearing (true) Bearing (mag) Surface Threshold Offset Overrun Length
06 75 ft / 23 m 5,002 ft / 1,524 m 50.86° 60.14° Asphalt 0 ft / 0 m 0 ft / 0 m
24 75 ft / 23 m 5,002 ft / 1,524 m 230.87° 240.15° Asphalt 0 ft / 0 m 0 ft / 0 m

Map

Weather


0- 5 10 15 20 25 30 35+ Temperature / ° C

Clouds and Precipitation
Forecast for 2017-12-11 18:00 UTC. Updated 25 minutes ago

Ground ~20,000 ft ~40,000 ft Winds

METAR

KCTZ 111325Z AUTO 00000KT 10SM CLR 00/00 A3019 RMK AO2 T00001005

TAF

Not found

Frequencies

Recorded 119.12 MHz AWOS 3
Approach 133.00 MHz FAYETTEVILLE APP/DEP
Unicom 122.80 MHz CTAF/UNICOM
Warning: Do not use this data for real-world aviation or navigation. No guarantee of current accuracy is given.